Helene — V7VF9 — position and weather

sailwx.info

Track history (hours):
 
Tides and Currents Weather Stations Pressure Air Temp Water Temp Dewpoint Dewpoint Depression Visibility Wind Speed Wind Dir Waves Ship Positions

Helene

Last reported at 2018-Feb-13 12:29 UTC. Time now 2018-Feb-20 00:11 UTC.
Position S 24°09' W 046°20'.

Length 207 m; draft 10.9 m.

Type: Cargo ship. MMSI: 538006866.

Date/timePositionNaut miles runAvg speedWind from/ knotsBaromVisibWave heightAir tempDewpointWater temp
2018-Feb-13 12:29S 24°09' W 046°20'510.3
2018-Feb-13 11:58S 24°03' W 046°22'5 9.8
2018-Feb-13 11:30S 23°60' W 046°19'3 5.6
2018-Feb-13 11:00S 23°57' W 046°19'1 2.6
2018-Feb-13 10:30S 23°56' W 046°19'0 0.0
2018-Feb-13 07:10S 23°56' W 046°19'0 0.0
2018-Feb-13 06:55S 23°56' W 046°19'0 0.0
2018-Feb-13 06:13S 23°56' W 046°19'0 0.0
2018-Feb-13 05:55S 23°56' W 046°19'0 0.0
2018-Feb-13 05:25S 23°56' W 046°19'0 0.0
2018-Feb-13 04:58S 23°56' W 046°19'0 0.0
2018-Feb-13 04:25S 23°56' W 046°19'0 0.0
2018-Feb-13 03:55S 23°56' W 046°19'0 0.0
2018-Feb-13 03:01S 23°56' W 046°19'0 0.1
2018-Feb-13 02:55S 23°56' W 046°19'0 0.0
2018-Feb-13 02:07S 23°56' W 046°19'0 0.0
2018-Feb-13 01:49S 23°56' W 046°19'0 0.0
2018-Feb-13 01:13S 23°56' W 046°19'0 0.0
2018-Feb-13 00:55S 23°56' W 046°19'0 0.0
2018-Feb-13 00:28S 23°56' W 046°19'0 0.0
2018-Feb-12 23:58S 23°56' W 046°19'0 0.0
2018-Feb-12 23:25S 23°56' W 046°19'0 0.0
2018-Feb-12 22:55S 23°56' W 046°19'0 0.0
2018-Feb-12 22:19S 23°56' W 046°19'0 0.0
2018-Feb-12 21:52S 23°56' W 046°19'0 0.0
2018-Feb-12 21:25S 23°56' W 046°19'0 0.0
2018-Feb-12 20:44S 23°56' W 046°19'0 1.1
2018-Feb-12 20:30S 23°56' W 046°19'3 6.6
2018-Feb-12 20:00S 23°59' W 046°17'4 7.1
2018-Feb-12 19:30S 24°01' W 046°20'510.3
2018-Feb-12 19:00S 24°05' W 046°23'3 3.0
2018-Feb-12 17:53S 24°09' W 046°24'3 7.4
2018-Feb-12 17:29S 24°11' W 046°24'712.9
2018-Feb-12 16:58S 24°18' W 046°25'  
Track history (hours):
 
Tides and Currents Weather Stations Pressure Air Temp Water Temp Dewpoint Dewpoint Depression Visibility Wind Speed Wind Dir Waves Ship Positions

Helene

Last reported at 2018-Feb-13 12:29 UTC. Time now 2018-Feb-20 00:11 UTC.
Position S 24°09' W 046°20'.

Length 207 m; draft 10.9 m.

Type: Cargo ship. MMSI: 538006866.

Date/timePositionNaut miles runAvg speedWind from/ knotsBaromVisibWave heightAir tempDewpointWater temp
2018-Feb-13 12:29S 24°09' W 046°20'510.3
2018-Feb-13 11:58S 24°03' W 046°22'5 9.8
2018-Feb-13 11:30S 23°60' W 046°19'3 5.6
2018-Feb-13 11:00S 23°57' W 046°19'1 2.6
2018-Feb-13 10:30S 23°56' W 046°19'0 0.0
2018-Feb-13 07:10S 23°56' W 046°19'0 0.0
2018-Feb-13 06:55S 23°56' W 046°19'0 0.0
2018-Feb-13 06:13S 23°56' W 046°19'0 0.0
2018-Feb-13 05:55S 23°56' W 046°19'0 0.0
2018-Feb-13 05:25S 23°56' W 046°19'0 0.0
2018-Feb-13 04:58S 23°56' W 046°19'0 0.0
2018-Feb-13 04:25S 23°56' W 046°19'0 0.0
2018-Feb-13 03:55S 23°56' W 046°19'0 0.0
2018-Feb-13 03:01S 23°56' W 046°19'0 0.1
2018-Feb-13 02:55S 23°56' W 046°19'0 0.0
2018-Feb-13 02:07S 23°56' W 046°19'0 0.0
2018-Feb-13 01:49S 23°56' W 046°19'0 0.0
2018-Feb-13 01:13S 23°56' W 046°19'0 0.0
2018-Feb-13 00:55S 23°56' W 046°19'0 0.0
2018-Feb-13 00:28S 23°56' W 046°19'0 0.0
2018-Feb-12 23:58S 23°56' W 046°19'0 0.0
2018-Feb-12 23:25S 23°56' W 046°19'0 0.0
2018-Feb-12 22:55S 23°56' W 046°19'0 0.0
2018-Feb-12 22:19S 23°56' W 046°19'0 0.0
2018-Feb-12 21:52S 23°56' W 046°19'0 0.0
2018-Feb-12 21:25S 23°56' W 046°19'0 0.0
2018-Feb-12 20:44S 23°56' W 046°19'0 1.1
2018-Feb-12 20:30S 23°56' W 046°19'3 6.6
2018-Feb-12 20:00S 23°59' W 046°17'4 7.1
2018-Feb-12 19:30S 24°01' W 046°20'510.3
2018-Feb-12 19:00S 24°05' W 046°23'3 3.0
2018-Feb-12 17:53S 24°09' W 046°24'3 7.4
2018-Feb-12 17:29S 24°11' W 046°24'712.9
2018-Feb-12 16:58S 24°18' W 046°25'  

Dump ship's entire track history